sensor_id;sensor_type;location;lat;lon;timestamp;P1;durP1;ratioP1;P2;durP2;ratioP2
83649;SDS011;73612;50.948;6.956;2024-01-06T00:19:08;154.97;;;50.67;;
83649;SDS011;73612;50.948;6.956;2024-01-06T00:21:45;49.20;;;24.63;;
83649;SDS011;73612;50.948;6.956;2024-01-06T00:24:13;87.07;;;33.73;;
83649;SDS011;73612;50.948;6.956;2024-01-06T00:26:44;48.53;;;22.13;;
83649;SDS011;73612;50.948;6.956;2024-01-06T00:29:24;43.73;;;22.83;;
83649;SDS011;73612;50.948;6.956;2024-01-06T00:32:08;30.83;;;17.73;;
83649;SDS011;73612;50.948;6.956;2024-01-06T00:34:37;27.47;;;15.53;;
83649;SDS011;73612;50.948;6.956;2024-01-06T19:04:11;176.50;;;52.37;;
83649;SDS011;73612;50.948;6.956;2024-01-06T19:06:38;124.97;;;44.87;;
83649;SDS011;73612;50.948;6.956;2024-01-06T19:09:05;94.83;;;40.80;;
83649;SDS011;73612;50.948;6.956;2024-01-06T19:11:33;62.17;;;29.90;;
83649;SDS011;73612;50.948;6.956;2024-01-06T19:14:00;49.33;;;26.63;;
83649;SDS011;73612;50.948;6.956;2024-01-06T19:16:27;40.53;;;23.20;;
83649;SDS011;73612;50.948;6.956;2024-01-06T19:18:55;43.70;;;22.50;;
83649;SDS011;73612;50.948;6.956;2024-01-06T19:21:22;38.87;;;20.37;;
83649;SDS011;73612;50.948;6.956;2024-01-06T19:23:49;32.67;;;19.70;;
83649;SDS011;73612;50.948;6.956;2024-01-06T19:26:17;35.07;;;18.27;;
83649;SDS011;73612;50.948;6.956;2024-01-06T19:28:44;30.50;;;16.53;;
83649;SDS011;73612;50.948;6.956;2024-01-06T19:31:10;30.20;;;16.13;;
83649;SDS011;73612;50.948;6.956;2024-01-06T19:33:38;26.13;;;15.70;;
83649;SDS011;73612;50.948;6.956;2024-01-06T19:36:05;27.97;;;15.37;;
83649;SDS011;73612;50.948;6.956;2024-01-06T19:38:32;26.87;;;15.83;;
83649;SDS011;73612;50.948;6.956;2024-01-06T19:40:59;26.70;;;15.53;;
83649;SDS011;73612;50.948;6.956;2024-01-06T19:43:25;29.23;;;15.60;;
83649;SDS011;73612;50.948;6.956;2024-01-06T19:45:53;29.10;;;15.47;;
83649;SDS011;73612;50.948;6.956;2024-01-06T19:48:20;29.33;;;15.37;;
83649;SDS011;73612;50.948;6.956;2024-01-06T19:50:47;33.00;;;16.00;;
83649;SDS011;73612;50.948;6.956;2024-01-06T19:53:14;36.23;;;16.00;;
83649;SDS011;73612;50.948;6.956;2024-01-06T19:55:41;34.67;;;15.93;;
83649;SDS011;73612;50.948;6.956;2024-01-06T19:58:09;36.33;;;18.93;;
83649;SDS011;73612;50.948;6.956;2024-01-06T20:00:36;82.13;;;33.37;;
83649;SDS011;73612;50.948;6.956;2024-01-06T20:03:04;88.73;;;38.03;;
83649;SDS011;73612;50.948;6.956;2024-01-06T20:05:30;98.93;;;40.17;;
83649;SDS011;73612;50.948;6.956;2024-01-06T20:07:57;81.47;;;38.77;;
83649;SDS011;73612;50.948;6.956;2024-01-06T20:10:24;97.93;;;40.10;;
83649;SDS011;73612;50.948;6.956;2024-01-06T20:12:50;83.17;;;36.37;;
83649;SDS011;73612;50.948;6.956;2024-01-06T20:15:17;86.47;;;35.07;;
83649;SDS011;73612;50.948;6.956;2024-01-06T20:17:43;86.43;;;36.50;;
83649;SDS011;73612;50.948;6.956;2024-01-06T20:20:10;78.70;;;33.60;;
83649;SDS011;73612;50.948;6.956;2024-01-06T20:22:37;79.47;;;34.80;;
83649;SDS011;73612;50.948;6.956;2024-01-06T20:50:53;75.37;;;31.27;;
83649;SDS011;73612;50.948;6.956;2024-01-06T20:53:22;78.97;;;30.67;;
83649;SDS011;73612;50.948;6.956;2024-01-06T20:55:50;78.10;;;30.53;;
83649;SDS011;73612;50.948;6.956;2024-01-06T20:58:23;87.00;;;31.73;;
83649;SDS011;73612;50.948;6.956;2024-01-06T21:00:52;86.37;;;31.77;;
83649;SDS011;73612;50.948;6.956;2024-01-06T21:03:20;88.70;;;30.13;;
83649;SDS011;73612;50.948;6.956;2024-01-06T21:05:52;80.33;;;30.53;;
83649;SDS011;73612;50.948;6.956;2024-01-06T21:08:22;93.13;;;33.50;;
83649;SDS011;73612;50.948;6.956;2024-01-06T21:10:59;101.67;;;35.93;;
83649;SDS011;73612;50.948;6.956;2024-01-06T21:13:42;113.87;;;37.90;;
83649;SDS011;73612;50.948;6.956;2024-01-06T21:16:13;109.50;;;36.53;;
83649;SDS011;73612;50.948;6.956;2024-01-06T21:18:44;111.93;;;34.87;;
83649;SDS011;73612;50.948;6.956;2024-01-06T21:21:18;102.87;;;34.33;;
83649;SDS011;73612;50.948;6.956;2024-01-06T21:24:01;95.57;;;32.80;;
83649;SDS011;73612;50.948;6.956;2024-01-06T21:46:08;101.13;;;34.67;;
83649;SDS011;73612;50.948;6.956;2024-01-06T21:48:44;111.37;;;38.20;;
83649;SDS011;73612;50.948;6.956;2024-01-06T21:51:13;105.70;;;36.20;;
83649;SDS011;73612;50.948;6.956;2024-01-06T21:53:59;104.37;;;36.17;;
83649;SDS011;73612;50.948;6.956;2024-01-06T21:56:30;106.13;;;36.37;;
83649;SDS011;73612;50.948;6.956;2024-01-06T21:58:59;125.97;;;38.87;;
83649;SDS011;73612;50.948;6.956;2024-01-06T22:01:47;132.77;;;41.83;;
83649;SDS011;73612;50.948;6.956;2024-01-06T22:04:26;123.33;;;39.07;;
83649;SDS011;73612;50.948;6.956;2024-01-06T22:06:56;118.93;;;38.10;;
83649;SDS011;73612;50.948;6.956;2024-01-06T22:09:29;111.33;;;35.27;;
83649;SDS011;73612;50.948;6.956;2024-01-06T22:12:10;126.23;;;38.13;;
83649;SDS011;73612;50.948;6.956;2024-01-06T22:17:26;119.80;;;38.63;;
83649;SDS011;73612;50.948;6.956;2024-01-06T22:22:38;124.43;;;37.27;;
83649;SDS011;73612;50.948;6.956;2024-01-06T22:25:08;122.90;;;39.13;;
83649;SDS011;73612;50.948;6.956;2024-01-06T22:27:35;118.37;;;36.17;;
83649;SDS011;73612;50.948;6.956;2024-01-06T22:32:48;106.37;;;34.50;;
83649;SDS011;73612;50.948;6.956;2024-01-06T22:37:59;118.47;;;35.27;;
83649;SDS011;73612;50.948;6.956;2024-01-06T22:46:01;115.03;;;38.50;;
83649;SDS011;73612;50.948;6.956;2024-01-06T22:53:56;99.47;;;33.17;;
83649;SDS011;73612;50.948;6.956;2024-01-06T22:56:26;105.23;;;35.53;;
83649;SDS011;73612;50.948;6.956;2024-01-06T22:58:53;115.67;;;37.27;;
83649;SDS011;73612;50.948;6.956;2024-01-06T23:01:22;117.93;;;37.27;;
83649;SDS011;73612;50.948;6.956;2024-01-06T23:03:50;101.43;;;34.37;;
83649;SDS011;73612;50.948;6.956;2024-01-06T23:06:21;116.63;;;36.73;;
83649;SDS011;73612;50.948;6.956;2024-01-06T23:08:51;110.87;;;35.03;;
83649;SDS011;73612;50.948;6.956;2024-01-06T23:11:21;109.50;;;35.50;;
83649;SDS011;73612;50.948;6.956;2024-01-06T23:13:48;102.90;;;37.20;;
83649;SDS011;73612;50.948;6.956;2024-01-06T23:19:06;233.97;;;83.03;;
83649;SDS011;73612;50.948;6.956;2024-01-06T23:21:41;141.13;;;44.07;;
83649;SDS011;73612;50.948;6.956;2024-01-06T23:35:51;116.50;;;37.73;;
83649;SDS011;73612;50.948;6.956;2024-01-06T23:38:20;123.90;;;39.13;;
83649;SDS011;73612;50.948;6.956;2024-01-06T23:41:03;119.77;;;35.87;;
83649;SDS011;73612;50.948;6.956;2024-01-06T23:46:20;109.97;;;34.10;;
83649;SDS011;73612;50.948;6.956;2024-01-06T23:48:53;105.83;;;34.93;;
83649;SDS011;73612;50.948;6.956;2024-01-06T23:51:28;119.03;;;35.30;;
